sensor_id;sensor_type;location;lat;lon;timestamp;P1;durP1;ratioP1;P2;durP2;ratioP2
41693;SDS011;27377;50.666;9.150;2022-12-07T00:01:25;25.02;;;16.55;;
41693;SDS011;27377;50.666;9.150;2022-12-07T00:03:53;23.88;;;17.08;;
41693;SDS011;27377;50.666;9.150;2022-12-07T00:06:25;22.23;;;15.13;;
41693;SDS011;27377;50.666;9.150;2022-12-07T00:08:51;23.80;;;15.10;;
41693;SDS011;27377;50.666;9.150;2022-12-07T00:11:18;26.08;;;17.00;;
41693;SDS011;27377;50.666;9.150;2022-12-07T00:13:45;24.35;;;16.42;;
41693;SDS011;27377;50.666;9.150;2022-12-07T00:16:12;24.77;;;16.70;;
41693;SDS011;27377;50.666;9.150;2022-12-07T00:18:42;23.27;;;16.15;;
41693;SDS011;27377;50.666;9.150;2022-12-07T00:21:10;21.77;;;15.50;;
41693;SDS011;27377;50.666;9.150;2022-12-07T00:23:38;23.15;;;15.50;;
41693;SDS011;27377;50.666;9.150;2022-12-07T00:26:08;21.60;;;15.05;;
41693;SDS011;27377;50.666;9.150;2022-12-07T00:28:36;24.75;;;16.15;;
41693;SDS011;27377;50.666;9.150;2022-12-07T00:31:09;25.13;;;16.67;;
41693;SDS011;27377;50.666;9.150;2022-12-07T00:33:39;23.93;;;16.33;;
41693;SDS011;27377;50.666;9.150;2022-12-07T00:36:09;23.58;;;16.48;;
41693;SDS011;27377;50.666;9.150;2022-12-07T00:38:37;23.75;;;16.63;;
41693;SDS011;27377;50.666;9.150;2022-12-07T00:41:04;25.77;;;17.25;;
41693;SDS011;27377;50.666;9.150;2022-12-07T00:43:38;24.83;;;16.93;;
41693;SDS011;27377;50.666;9.150;2022-12-07T00:46:04;23.80;;;16.57;;
41693;SDS011;27377;50.666;9.150;2022-12-07T00:48:30;26.48;;;18.33;;
41693;SDS011;27377;50.666;9.150;2022-12-07T00:50:59;26.25;;;17.70;;
41693;SDS011;27377;50.666;9.150;2022-12-07T00:53:25;26.45;;;18.08;;
41693;SDS011;27377;50.666;9.150;2022-12-07T00:55:51;28.75;;;18.70;;
41693;SDS011;27377;50.666;9.150;2022-12-07T00:58:17;28.33;;;18.95;;
41693;SDS011;27377;50.666;9.150;2022-12-07T01:00:43;26.80;;;18.23;;
41693;SDS011;27377;50.666;9.150;2022-12-07T01:03:10;27.27;;;18.63;;
41693;SDS011;27377;50.666;9.150;2022-12-07T01:05:37;28.55;;;19.08;;
41693;SDS011;27377;50.666;9.150;2022-12-07T01:08:03;27.38;;;17.95;;
41693;SDS011;27377;50.666;9.150;2022-12-07T01:10:29;27.58;;;18.17;;
41693;SDS011;27377;50.666;9.150;2022-12-07T01:12:56;26.83;;;18.85;;
41693;SDS011;27377;50.666;9.150;2022-12-07T01:15:23;26.35;;;18.13;;
41693;SDS011;27377;50.666;9.150;2022-12-07T01:17:49;29.05;;;18.90;;
41693;SDS011;27377;50.666;9.150;2022-12-07T01:20:15;29.13;;;18.67;;
41693;SDS011;27377;50.666;9.150;2022-12-07T01:22:41;27.38;;;18.48;;
41693;SDS011;27377;50.666;9.150;2022-12-07T01:25:09;26.83;;;18.08;;
41693;SDS011;27377;50.666;9.150;2022-12-07T01:27:36;24.83;;;16.87;;
41693;SDS011;27377;50.666;9.150;2022-12-07T01:30:02;25.13;;;17.48;;
41693;SDS011;27377;50.666;9.150;2022-12-07T01:32:29;25.35;;;17.92;;
41693;SDS011;27377;50.666;9.150;2022-12-07T01:34:55;26.70;;;18.00;;
41693;SDS011;27377;50.666;9.150;2022-12-07T01:37:21;25.70;;;18.17;;
41693;SDS011;27377;50.666;9.150;2022-12-07T01:39:50;26.90;;;18.67;;
41693;SDS011;27377;50.666;9.150;2022-12-07T01:42:16;26.38;;;18.27;;
41693;SDS011;27377;50.666;9.150;2022-12-07T01:47:49;27.23;;;18.48;;
41693;SDS011;27377;50.666;9.150;2022-12-07T01:50:17;29.27;;;19.20;;
41693;SDS011;27377;50.666;9.150;2022-12-07T01:52:44;28.65;;;19.27;;
41693;SDS011;27377;50.666;9.150;2022-12-07T01:55:15;27.53;;;19.00;;
41693;SDS011;27377;50.666;9.150;2022-12-07T01:57:49;28.17;;;19.27;;
41693;SDS011;27377;50.666;9.150;2022-12-07T02:00:18;27.88;;;19.13;;
41693;SDS011;27377;50.666;9.150;2022-12-07T02:02:48;30.13;;;20.10;;
41693;SDS011;27377;50.666;9.150;2022-12-07T02:05:20;27.35;;;19.63;;
41693;SDS011;27377;50.666;9.150;2022-12-07T02:07:49;30.25;;;20.10;;
41693;SDS011;27377;50.666;9.150;2022-12-07T02:10:21;30.88;;;19.27;;
41693;SDS011;27377;50.666;9.150;2022-12-07T02:12:51;29.35;;;19.60;;
41693;SDS011;27377;50.666;9.150;2022-12-07T02:15:20;28.40;;;19.98;;
41693;SDS011;27377;50.666;9.150;2022-12-07T02:21:02;28.77;;;19.17;;
41693;SDS011;27377;50.666;9.150;2022-12-07T02:29:24;30.08;;;19.92;;
41693;SDS011;27377;50.666;9.150;2022-12-07T02:31:56;29.02;;;19.48;;
41693;SDS011;27377;50.666;9.150;2022-12-07T02:34:28;29.27;;;20.33;;
41693;SDS011;27377;50.666;9.150;2022-12-07T02:37:17;30.27;;;20.10;;
41693;SDS011;27377;50.666;9.150;2022-12-07T02:45:40;30.00;;;20.10;;
41693;SDS011;27377;50.666;9.150;2022-12-07T02:48:07;27.67;;;19.55;;
41693;SDS011;27377;50.666;9.150;2022-12-07T02:50:36;29.45;;;20.05;;
41693;SDS011;27377;50.666;9.150;2022-12-07T02:53:02;29.10;;;19.80;;
41693;SDS011;27377;50.666;9.150;2022-12-07T02:55:29;30.10;;;19.23;;
41693;SDS011;27377;50.666;9.150;2022-12-07T03:00:59;29.38;;;19.85;;
41693;SDS011;27377;50.666;9.150;2022-12-07T03:03:56;27.05;;;18.85;;
41693;SDS011;27377;50.666;9.150;2022-12-07T03:06:34;29.98;;;19.85;;
41693;SDS011;27377;50.666;9.150;2022-12-07T03:09:20;27.90;;;19.27;;
41693;SDS011;27377;50.666;9.150;2022-12-07T03:12:16;26.95;;;19.48;;
41693;SDS011;27377;50.666;9.150;2022-12-07T03:14:53;27.60;;;20.00;;
41693;SDS011;27377;50.666;9.150;2022-12-07T03:17:25;27.38;;;19.17;;
41693;SDS011;27377;50.666;9.150;2022-12-07T03:19:57;28.65;;;19.02;;
41693;SDS011;27377;50.666;9.150;2022-12-07T03:22:24;26.90;;;19.13;;
41693;SDS011;27377;50.666;9.150;2022-12-07T03:24:55;28.77;;;19.65;;
41693;SDS011;27377;50.666;9.150;2022-12-07T03:27:31;29.30;;;19.25;;
41693;SDS011;27377;50.666;9.150;2022-12-07T03:30:04;26.70;;;18.63;;
41693;SDS011;27377;50.666;9.150;2022-12-07T03:32:40;27.45;;;19.02;;
41693;SDS011;27377;50.666;9.150;2022-12-07T03:35:11;29.02;;;19.50;;
41693;SDS011;27377;50.666;9.150;2022-12-07T03:38:04;29.20;;;18.35;;
41693;SDS011;27377;50.666;9.150;2022-12-07T03:40:47;27.83;;;19.25;;
41693;SDS011;27377;50.666;9.150;2022-12-07T03:43:23;28.38;;;18.60;;
41693;SDS011;27377;50.666;9.150;2022-12-07T03:54:11;28.40;;;18.93;;
41693;SDS011;27377;50.666;9.150;2022-12-07T03:56:45;27.80;;;19.20;;
41693;SDS011;27377;50.666;9.150;2022-12-07T03:59:11;29.15;;;18.48;;
41693;SDS011;27377;50.666;9.150;2022-12-07T04:01:40;26.40;;;18.55;;
41693;SDS011;27377;50.666;9.150;2022-12-07T04:04:07;29.38;;;19.13;;
41693;SDS011;27377;50.666;9.150;2022-12-07T04:06:33;27.73;;;18.67;;
41693;SDS011;27377;50.666;9.150;2022-12-07T04:08:58;26.77;;;18.43;;
41693;SDS011;27377;50.666;9.150;2022-12-07T04:11:24;25.40;;;17.13;;
41693;SDS011;27377;50.666;9.150;2022-12-07T04:13:49;27.20;;;17.97;;
41693;SDS011;27377;50.666;9.150;2022-12-07T04:16:33;26.17;;;17.20;;
41693;SDS011;27377;50.666;9.150;2022-12-07T04:18:59;25.02;;;17.25;;
41693;SDS011;27377;50.666;9.150;2022-12-07T04:21:24;25.42;;;17.25;;
41693;SDS011;27377;50.666;9.150;2022-12-07T04:23:50;24.15;;;16.63;;
41693;SDS011;27377;50.666;9.150;2022-12-07T04:26:15;23.50;;;16.15;;
41693;SDS011;27377;50.666;9.150;2022-12-07T04:28:41;24.60;;;16.05;;
41693;SDS011;27377;50.666;9.150;2022-12-07T04:31:06;22.50;;;16.27;;
41693;SDS011;27377;50.666;9.150;2022-12-07T04:33:32;26.83;;;17.03;;
41693;SDS011;27377;50.666;9.150;2022-12-07T04:35:58;25.43;;;16.80;;
41693;SDS011;27377;50.666;9.150;2022-12-07T04:38:23;23.90;;;16.30;;
41693;SDS011;27377;50.666;9.150;2022-12-07T04:40:49;24.33;;;16.30;;
41693;SDS011;27377;50.666;9.150;2022-12-07T04:43:14;21.30;;;14.73;;
41693;SDS011;27377;50.666;9.150;2022-12-07T04:45:44;22.43;;;15.60;;
41693;SDS011;27377;50.666;9.150;2022-12-07T04:48:11;22.90;;;14.90;;
41693;SDS011;27377;50.666;9.150;2022-12-07T04:50:36;20.38;;;14.60;;
41693;SDS011;27377;50.666;9.150;2022-12-07T04:53:03;21.33;;;14.50;;
41693;SDS011;27377;50.666;9.150;2022-12-07T04:55:28;20.23;;;14.57;;
41693;SDS011;27377;50.666;9.150;2022-12-07T04:57:54;20.57;;;14.97;;
41693;SDS011;27377;50.666;9.150;2022-12-07T05:00:19;20.67;;;14.80;;
41693;SDS011;27377;50.666;9.150;2022-12-07T05:02:45;20.20;;;14.50;;
41693;SDS011;27377;50.666;9.150;2022-12-07T05:05:11;20.37;;;13.73;;
41693;SDS011;27377;50.666;9.150;2022-12-07T05:07:36;19.88;;;13.85;;
41693;SDS011;27377;50.666;9.150;2022-12-07T05:10:02;20.42;;;14.32;;
41693;SDS011;27377;50.666;9.150;2022-12-07T05:12:28;20.17;;;14.52;;
41693;SDS011;27377;50.666;9.150;2022-12-07T05:14:53;23.93;;;17.10;;
41693;SDS011;27377;50.666;9.150;2022-12-07T05:17:19;21.37;;;15.87;;
41693;SDS011;27377;50.666;9.150;2022-12-07T05:19:44;18.97;;;13.80;;
41693;SDS011;27377;50.666;9.150;2022-12-07T05:22:10;19.50;;;14.00;;
41693;SDS011;27377;50.666;9.150;2022-12-07T05:24:35;19.93;;;14.10;;
41693;SDS011;27377;50.666;9.150;2022-12-07T05:27:01;19.67;;;13.90;;
41693;SDS011;27377;50.666;9.150;2022-12-07T05:29:26;20.60;;;14.40;;
41693;SDS011;27377;50.666;9.150;2022-12-07T05:31:52;20.77;;;14.43;;
41693;SDS011;27377;50.666;9.150;2022-12-07T05:34:18;20.27;;;14.40;;
41693;SDS011;27377;50.666;9.150;2022-12-07T05:36:43;20.73;;;13.93;;
41693;SDS011;27377;50.666;9.150;2022-12-07T05:39:09;19.10;;;14.15;;
41693;SDS011;27377;50.666;9.150;2022-12-07T05:41:35;17.92;;;13.60;;
41693;SDS011;27377;50.666;9.150;2022-12-07T05:44:19;21.02;;;14.13;;
41693;SDS011;27377;50.666;9.150;2022-12-07T05:46:45;20.10;;;13.80;;
41693;SDS011;27377;50.666;9.150;2022-12-07T05:49:10;19.13;;;14.50;;
41693;SDS011;27377;50.666;9.150;2022-12-07T05:51:36;18.67;;;13.50;;
41693;SDS011;27377;50.666;9.150;2022-12-07T05:54:02;18.48;;;13.45;;
41693;SDS011;27377;50.666;9.150;2022-12-07T05:56:27;20.38;;;14.23;;
41693;SDS011;27377;50.666;9.150;2022-12-07T05:58:53;19.50;;;13.80;;
41693;SDS011;27377;50.666;9.150;2022-12-07T06:01:38;19.98;;;13.70;;
41693;SDS011;27377;50.666;9.150;2022-12-07T06:04:07;21.23;;;14.18;;
41693;SDS011;27377;50.666;9.150;2022-12-07T06:06:32;20.17;;;14.02;;
41693;SDS011;27377;50.666;9.150;2022-12-07T06:08:58;19.23;;;14.20;;
41693;SDS011;27377;50.666;9.150;2022-12-07T06:11:24;18.88;;;13.60;;
41693;SDS011;27377;50.666;9.150;2022-12-07T06:14:08;17.63;;;13.60;;
41693;SDS011;27377;50.666;9.150;2022-12-07T06:16:34;19.33;;;14.40;;
41693;SDS011;27377;50.666;9.150;2022-12-07T06:19:03;19.52;;;14.60;;
41693;SDS011;27377;50.666;9.150;2022-12-07T06:21:29;20.25;;;14.63;;
41693;SDS011;27377;50.666;9.150;2022-12-07T06:23:54;18.37;;;13.73;;
41693;SDS011;27377;50.666;9.150;2022-12-07T06:26:20;18.63;;;13.40;;
41693;SDS011;27377;50.666;9.150;2022-12-07T06:28:46;19.65;;;14.35;;
41693;SDS011;27377;50.666;9.150;2022-12-07T06:31:12;18.93;;;13.60;;
41693;SDS011;27377;50.666;9.150;2022-12-07T06:33:37;21.63;;;15.33;;
41693;SDS011;27377;50.666;9.150;2022-12-07T06:36:03;19.33;;;14.87;;
41693;SDS011;27377;50.666;9.150;2022-12-07T06:38:28;20.88;;;14.77;;
41693;SDS011;27377;50.666;9.150;2022-12-07T06:40:54;21.83;;;15.23;;
41693;SDS011;27377;50.666;9.150;2022-12-07T06:43:20;20.00;;;15.07;;
41693;SDS011;27377;50.666;9.150;2022-12-07T06:45:47;19.17;;;14.90;;
41693;SDS011;27377;50.666;9.150;2022-12-07T06:48:13;20.38;;;14.98;;
41693;SDS011;27377;50.666;9.150;2022-12-07T06:50:39;20.60;;;15.00;;
41693;SDS011;27377;50.666;9.150;2022-12-07T06:53:05;22.23;;;15.30;;
41693;SDS011;27377;50.666;9.150;2022-12-07T06:55:30;21.53;;;14.87;;
41693;SDS011;27377;50.666;9.150;2022-12-07T06:57:56;22.03;;;15.23;;
41693;SDS011;27377;50.666;9.150;2022-12-07T07:00:25;20.35;;;15.20;;
41693;SDS011;27377;50.666;9.150;2022-12-07T07:02:51;20.92;;;15.65;;
41693;SDS011;27377;50.666;9.150;2022-12-07T07:05:17;20.98;;;15.45;;
41693;SDS011;27377;50.666;9.150;2022-12-07T07:07:42;20.55;;;15.68;;
41693;SDS011;27377;50.666;9.150;2022-12-07T07:10:12;22.00;;;15.95;;
41693;SDS011;27377;50.666;9.150;2022-12-07T07:12:38;21.92;;;16.55;;
41693;SDS011;27377;50.666;9.150;2022-12-07T07:15:04;26.95;;;18.23;;
41693;SDS011;27377;50.666;9.150;2022-12-07T07:17:30;25.60;;;18.13;;
41693;SDS011;27377;50.666;9.150;2022-12-07T07:19:56;25.93;;;18.47;;
41693;SDS011;27377;50.666;9.150;2022-12-07T07:22:21;24.08;;;17.52;;
41693;SDS011;27377;50.666;9.150;2022-12-07T07:24:50;22.83;;;16.20;;
41693;SDS011;27377;50.666;9.150;2022-12-07T07:27:16;22.90;;;16.40;;
41693;SDS011;27377;50.666;9.150;2022-12-07T07:29:42;23.83;;;16.38;;
41693;SDS011;27377;50.666;9.150;2022-12-07T07:32:08;22.67;;;15.53;;
41693;SDS011;27377;50.666;9.150;2022-12-07T07:34:33;22.27;;;16.23;;
41693;SDS011;27377;50.666;9.150;2022-12-07T07:36:59;21.92;;;16.13;;
41693;SDS011;27377;50.666;9.150;2022-12-07T07:39:25;22.73;;;16.27;;
41693;SDS011;27377;50.666;9.150;2022-12-07T07:41:54;21.95;;;16.15;;
41693;SDS011;27377;50.666;9.150;2022-12-07T07:44:19;21.90;;;16.70;;
41693;SDS011;27377;50.666;9.150;2022-12-07T07:46:45;22.03;;;16.47;;
41693;SDS011;27377;50.666;9.150;2022-12-07T07:49:10;25.42;;;16.85;;
41693;SDS011;27377;50.666;9.150;2022-12-07T07:51:36;24.20;;;17.75;;
41693;SDS011;27377;50.666;9.150;2022-12-07T07:54:02;24.10;;;16.97;;
41693;SDS011;27377;50.666;9.150;2022-12-07T07:56:28;23.65;;;16.80;;
41693;SDS011;27377;50.666;9.150;2022-12-07T07:58:54;22.00;;;16.60;;
41693;SDS011;27377;50.666;9.150;2022-12-07T08:01:20;22.23;;;16.20;;
41693;SDS011;27377;50.666;9.150;2022-12-07T08:03:46;23.52;;;16.27;;
41693;SDS011;27377;50.666;9.150;2022-12-07T08:06:12;21.15;;;16.08;;
41693;SDS011;27377;50.666;9.150;2022-12-07T08:08:37;23.50;;;16.67;;
41693;SDS011;27377;50.666;9.150;2022-12-07T08:11:06;22.98;;;15.80;;
41693;SDS011;27377;50.666;9.150;2022-12-07T08:13:36;21.77;;;15.32;;
41693;SDS011;27377;50.666;9.150;2022-12-07T08:16:06;22.20;;;15.00;;
41693;SDS011;27377;50.666;9.150;2022-12-07T08:18:37;20.15;;;14.80;;
41693;SDS011;27377;50.666;9.150;2022-12-07T08:21:04;20.20;;;14.48;;
41693;SDS011;27377;50.666;9.150;2022-12-07T08:23:30;21.63;;;14.32;;
41693;SDS011;27377;50.666;9.150;2022-12-07T08:26:03;21.05;;;14.70;;
41693;SDS011;27377;50.666;9.150;2022-12-07T08:28:30;20.10;;;14.65;;
41693;SDS011;27377;50.666;9.150;2022-12-07T08:30:59;21.55;;;14.82;;
41693;SDS011;27377;50.666;9.150;2022-12-07T08:33:29;19.98;;;14.30;;
41693;SDS011;27377;50.666;9.150;2022-12-07T08:35:59;20.33;;;14.25;;
41693;SDS011;27377;50.666;9.150;2022-12-07T08:38:28;20.57;;;13.70;;
41693;SDS011;27377;50.666;9.150;2022-12-07T08:40:54;20.55;;;14.35;;
41693;SDS011;27377;50.666;9.150;2022-12-07T08:43:23;21.10;;;14.30;;
41693;SDS011;27377;50.666;9.150;2022-12-07T08:45:51;19.83;;;13.32;;
41693;SDS011;27377;50.666;9.150;2022-12-07T08:48:32;17.98;;;13.00;;
41693;SDS011;27377;50.666;9.150;2022-12-07T08:51:01;18.03;;;13.00;;
41693;SDS011;27377;50.666;9.150;2022-12-07T08:53:27;16.65;;;12.07;;
41693;SDS011;27377;50.666;9.150;2022-12-07T08:55:54;18.35;;;12.93;;
41693;SDS011;27377;50.666;9.150;2022-12-07T08:58:21;17.08;;;12.25;;
41693;SDS011;27377;50.666;9.150;2022-12-07T09:00:47;17.05;;;12.38;;
41693;SDS011;27377;50.666;9.150;2022-12-07T09:03:12;19.67;;;12.60;;
41693;SDS011;27377;50.666;9.150;2022-12-07T09:05:38;16.05;;;11.52;;
41693;SDS011;27377;50.666;9.150;2022-12-07T09:08:03;18.58;;;12.73;;
41693;SDS011;27377;50.666;9.150;2022-12-07T09:10:30;18.48;;;12.20;;
41693;SDS011;27377;50.666;9.150;2022-12-07T09:12:55;16.88;;;11.70;;
41693;SDS011;27377;50.666;9.150;2022-12-07T09:15:25;18.45;;;10.30;;
41693;SDS011;27377;50.666;9.150;2022-12-07T09:17:52;16.95;;;11.30;;
41693;SDS011;27377;50.666;9.150;2022-12-07T09:20:18;16.67;;;10.77;;
41693;SDS011;27377;50.666;9.150;2022-12-07T09:22:43;16.90;;;10.90;;
41693;SDS011;27377;50.666;9.150;2022-12-07T09:25:09;17.80;;;11.73;;
41693;SDS011;27377;50.666;9.150;2022-12-07T09:27:34;15.97;;;11.20;;
41693;SDS011;27377;50.666;9.150;2022-12-07T09:30:00;16.73;;;10.83;;
41693;SDS011;27377;50.666;9.150;2022-12-07T09:32:26;16.60;;;10.97;;
41693;SDS011;27377;50.666;9.150;2022-12-07T09:34:51;16.93;;;10.77;;
41693;SDS011;27377;50.666;9.150;2022-12-07T09:37:17;16.38;;;10.52;;
41693;SDS011;27377;50.666;9.150;2022-12-07T09:39:42;16.65;;;11.02;;
41693;SDS011;27377;50.666;9.150;2022-12-07T09:42:08;15.07;;;10.82;;
41693;SDS011;27377;50.666;9.150;2022-12-07T09:44:41;17.30;;;11.23;;
41693;SDS011;27377;50.666;9.150;2022-12-07T09:47:07;17.10;;;11.03;;
41693;SDS011;27377;50.666;9.150;2022-12-07T09:49:35;18.40;;;11.38;;
41693;SDS011;27377;50.666;9.150;2022-12-07T09:54:28;17.85;;;11.15;;
41693;SDS011;27377;50.666;9.150;2022-12-07T09:56:55;21.77;;;12.68;;
41693;SDS011;27377;50.666;9.150;2022-12-07T09:59:21;20.40;;;12.47;;
41693;SDS011;27377;50.666;9.150;2022-12-07T10:01:48;19.35;;;11.90;;
41693;SDS011;27377;50.666;9.150;2022-12-07T10:04:16;19.85;;;11.82;;
41693;SDS011;27377;50.666;9.150;2022-12-07T10:06:44;19.15;;;11.52;;
41693;SDS011;27377;50.666;9.150;2022-12-07T10:09:15;18.00;;;11.88;;
41693;SDS011;27377;50.666;9.150;2022-12-07T10:14:27;18.80;;;11.73;;
41693;SDS011;27377;50.666;9.150;2022-12-07T10:16:54;19.38;;;12.13;;
41693;SDS011;27377;50.666;9.150;2022-12-07T10:19:28;19.52;;;12.02;;
41693;SDS011;27377;50.666;9.150;2022-12-07T10:22:12;20.60;;;11.73;;
41693;SDS011;27377;50.666;9.150;2022-12-07T10:24:40;20.70;;;13.05;;
41693;SDS011;27377;50.666;9.150;2022-12-07T10:27:30;18.73;;;12.68;;
41693;SDS011;27377;50.666;9.150;2022-12-07T10:29:57;18.77;;;12.07;;
41693;SDS011;27377;50.666;9.150;2022-12-07T10:32:28;16.80;;;11.47;;
41693;SDS011;27377;50.666;9.150;2022-12-07T10:37:47;19.00;;;11.40;;
41693;SDS011;27377;50.666;9.150;2022-12-07T10:48:17;19.40;;;11.43;;
41693;SDS011;27377;50.666;9.150;2022-12-07T10:50:57;18.02;;;11.20;;
41693;SDS011;27377;50.666;9.150;2022-12-07T10:53:54;16.88;;;10.65;;
41693;SDS011;27377;50.666;9.150;2022-12-07T11:01:55;15.98;;;10.07;;
41693;SDS011;27377;50.666;9.150;2022-12-07T11:04:36;17.58;;;11.15;;
41693;SDS011;27377;50.666;9.150;2022-12-07T11:10:22;16.73;;;10.20;;
41693;SDS011;27377;50.666;9.150;2022-12-07T11:13:08;15.82;;;10.48;;
41693;SDS011;27377;50.666;9.150;2022-12-07T11:21:30;20.27;;;9.80;;
41693;SDS011;27377;50.666;9.150;2022-12-07T11:24:01;18.38;;;9.57;;
41693;SDS011;27377;50.666;9.150;2022-12-07T11:32:51;13.23;;;7.15;;
41693;SDS011;27377;50.666;9.150;2022-12-07T11:38:14;15.02;;;6.72;;
41693;SDS011;27377;50.666;9.150;2022-12-07T11:40:49;11.85;;;6.40;;
41693;SDS011;27377;50.666;9.150;2022-12-07T11:43:28;10.48;;;6.25;;
41693;SDS011;27377;50.666;9.150;2022-12-07T11:46:04;9.75;;;5.50;;
41693;SDS011;27377;50.666;9.150;2022-12-07T11:48:35;10.63;;;5.60;;
41693;SDS011;27377;50.666;9.150;2022-12-07T11:51:22;10.45;;;5.18;;
41693;SDS011;27377;50.666;9.150;2022-12-07T11:56:19;8.47;;;4.47;;
41693;SDS011;27377;50.666;9.150;2022-12-07T12:03:51;7.37;;;3.57;;
41693;SDS011;27377;50.666;9.150;2022-12-07T12:06:21;10.07;;;3.93;;
41693;SDS011;27377;50.666;9.150;2022-12-07T12:08:53;7.55;;;3.75;;
41693;SDS011;27377;50.666;9.150;2022-12-07T12:14:48;6.95;;;3.00;;
41693;SDS011;27377;50.666;9.150;2022-12-07T12:20:55;7.47;;;2.90;;
41693;SDS011;27377;50.666;9.150;2022-12-07T12:23:41;7.60;;;2.40;;
41693;SDS011;27377;50.666;9.150;2022-12-07T12:26:23;8.30;;;2.42;;
41693;SDS011;27377;50.666;9.150;2022-12-07T12:28:59;7.57;;;2.57;;
41693;SDS011;27377;50.666;9.150;2022-12-07T12:33:58;5.55;;;2.50;;
41693;SDS011;27377;50.666;9.150;2022-12-07T12:36:28;8.55;;;2.53;;
41693;SDS011;27377;50.666;9.150;2022-12-07T12:39:11;7.07;;;2.70;;
41693;SDS011;27377;50.666;9.150;2022-12-07T12:46:56;6.33;;;2.60;;
41693;SDS011;27377;50.666;9.150;2022-12-07T12:51:54;6.77;;;2.63;;
41693;SDS011;27377;50.666;9.150;2022-12-07T12:54:26;7.20;;;2.95;;
41693;SDS011;27377;50.666;9.150;2022-12-07T13:02:24;7.85;;;2.55;;
41693;SDS011;27377;50.666;9.150;2022-12-07T13:07:49;5.35;;;2.50;;
41693;SDS011;27377;50.666;9.150;2022-12-07T13:15:49;6.95;;;2.60;;
41693;SDS011;27377;50.666;9.150;2022-12-07T13:18:24;8.43;;;2.42;;
41693;SDS011;27377;50.666;9.150;2022-12-07T13:21:00;5.32;;;2.40;;
41693;SDS011;27377;50.666;9.150;2022-12-07T13:23:28;4.75;;;2.10;;
41693;SDS011;27377;50.666;9.150;2022-12-07T13:26:22;7.63;;;2.10;;
41693;SDS011;27377;50.666;9.150;2022-12-07T13:31:36;7.13;;;2.13;;
41693;SDS011;27377;50.666;9.150;2022-12-07T13:34:05;7.67;;;2.30;;
41693;SDS011;27377;50.666;9.150;2022-12-07T13:37:14;4.87;;;2.10;;
41693;SDS011;27377;50.666;9.150;2022-12-07T13:39:47;5.18;;;2.20;;
41693;SDS011;27377;50.666;9.150;2022-12-07T13:42:21;7.53;;;2.53;;
41693;SDS011;27377;50.666;9.150;2022-12-07T13:44:52;7.40;;;2.45;;
41693;SDS011;27377;50.666;9.150;2022-12-07T13:50:26;7.00;;;2.15;;
41693;SDS011;27377;50.666;9.150;2022-12-07T13:52:55;8.07;;;2.40;;
41693;SDS011;27377;50.666;9.150;2022-12-07T13:55:22;6.40;;;2.50;;
41693;SDS011;27377;50.666;9.150;2022-12-07T13:57:52;6.22;;;2.60;;
41693;SDS011;27377;50.666;9.150;2022-12-07T14:00:20;5.63;;;2.30;;
41693;SDS011;27377;50.666;9.150;2022-12-07T14:02:55;6.70;;;2.40;;
41693;SDS011;27377;50.666;9.150;2022-12-07T14:13:29;6.38;;;2.45;;
41693;SDS011;27377;50.666;9.150;2022-12-07T14:15:59;7.60;;;2.50;;
41693;SDS011;27377;50.666;9.150;2022-12-07T14:18:27;7.03;;;2.95;;
41693;SDS011;27377;50.666;9.150;2022-12-07T14:23:36;6.47;;;2.40;;
41693;SDS011;27377;50.666;9.150;2022-12-07T14:26:19;7.80;;;2.60;;
41693;SDS011;27377;50.666;9.150;2022-12-07T14:28:46;7.20;;;2.75;;
41693;SDS011;27377;50.666;9.150;2022-12-07T14:31:19;5.57;;;2.42;;
41693;SDS011;27377;50.666;9.150;2022-12-07T14:33:51;8.20;;;2.55;;
41693;SDS011;27377;50.666;9.150;2022-12-07T14:36:17;9.38;;;2.80;;
41693;SDS011;27377;50.666;9.150;2022-12-07T14:38:42;7.93;;;2.70;;
41693;SDS011;27377;50.666;9.150;2022-12-07T14:41:15;6.03;;;2.43;;
41693;SDS011;27377;50.666;9.150;2022-12-07T14:44:11;9.10;;;2.80;;
41693;SDS011;27377;50.666;9.150;2022-12-07T14:49:08;9.93;;;3.30;;
41693;SDS011;27377;50.666;9.150;2022-12-07T14:51:34;10.60;;;3.78;;
41693;SDS011;27377;50.666;9.150;2022-12-07T14:54:02;9.15;;;3.28;;
41693;SDS011;27377;50.666;9.150;2022-12-07T14:56:30;8.47;;;3.20;;
41693;SDS011;27377;50.666;9.150;2022-12-07T14:58:58;7.80;;;2.80;;
41693;SDS011;27377;50.666;9.150;2022-12-07T15:01:24;7.20;;;3.17;;
41693;SDS011;27377;50.666;9.150;2022-12-07T15:03:49;7.30;;;2.50;;
41693;SDS011;27377;50.666;9.150;2022-12-07T15:06:17;8.00;;;2.70;;
41693;SDS011;27377;50.666;9.150;2022-12-07T15:08:43;6.28;;;2.50;;
41693;SDS011;27377;50.666;9.150;2022-12-07T15:11:11;6.88;;;2.80;;
41693;SDS011;27377;50.666;9.150;2022-12-07T15:13:40;9.20;;;3.38;;
41693;SDS011;27377;50.666;9.150;2022-12-07T15:16:24;7.43;;;2.80;;
41693;SDS011;27377;50.666;9.150;2022-12-07T15:18:50;8.38;;;2.80;;
41693;SDS011;27377;50.666;9.150;2022-12-07T15:21:16;9.93;;;3.20;;
41693;SDS011;27377;50.666;9.150;2022-12-07T15:23:46;9.77;;;2.92;;
41693;SDS011;27377;50.666;9.150;2022-12-07T15:26:12;7.55;;;2.45;;
41693;SDS011;27377;50.666;9.150;2022-12-07T15:28:38;6.93;;;2.60;;
41693;SDS011;27377;50.666;9.150;2022-12-07T15:31:10;7.82;;;2.78;;
41693;SDS011;27377;50.666;9.150;2022-12-07T15:33:37;10.45;;;2.88;;
41693;SDS011;27377;50.666;9.150;2022-12-07T15:36:02;9.55;;;3.10;;
41693;SDS011;27377;50.666;9.150;2022-12-07T15:38:28;8.25;;;2.70;;
41693;SDS011;27377;50.666;9.150;2022-12-07T15:40:55;12.38;;;3.15;;
41693;SDS011;27377;50.666;9.150;2022-12-07T15:43:21;8.23;;;2.90;;
41693;SDS011;27377;50.666;9.150;2022-12-07T15:46:35;7.35;;;3.33;;
41693;SDS011;27377;50.666;9.150;2022-12-07T15:49:03;8.02;;;2.97;;
41693;SDS011;27377;50.666;9.150;2022-12-07T15:51:31;7.25;;;3.08;;
41693;SDS011;27377;50.666;9.150;2022-12-07T15:53:57;8.40;;;3.23;;
41693;SDS011;27377;50.666;9.150;2022-12-07T15:56:23;9.23;;;3.22;;
41693;SDS011;27377;50.666;9.150;2022-12-07T15:58:49;7.03;;;3.23;;
41693;SDS011;27377;50.666;9.150;2022-12-07T16:01:16;9.30;;;3.10;;
41693;SDS011;27377;50.666;9.150;2022-12-07T16:03:43;11.80;;;3.40;;
41693;SDS011;27377;50.666;9.150;2022-12-07T16:06:09;8.10;;;2.83;;
41693;SDS011;27377;50.666;9.150;2022-12-07T16:08:35;10.07;;;3.17;;
41693;SDS011;27377;50.666;9.150;2022-12-07T16:11:05;8.50;;;3.35;;
41693;SDS011;27377;50.666;9.150;2022-12-07T16:13:31;8.90;;;3.30;;
41693;SDS011;27377;50.666;9.150;2022-12-07T16:15:57;11.57;;;3.30;;
41693;SDS011;27377;50.666;9.150;2022-12-07T16:18:23;9.30;;;2.90;;
41693;SDS011;27377;50.666;9.150;2022-12-07T16:20:48;7.43;;;2.63;;
41693;SDS011;27377;50.666;9.150;2022-12-07T16:23:14;8.07;;;2.70;;
41693;SDS011;27377;50.666;9.150;2022-12-07T16:25:40;7.40;;;2.90;;
41693;SDS011;27377;50.666;9.150;2022-12-07T16:28:06;8.17;;;3.07;;
41693;SDS011;27377;50.666;9.150;2022-12-07T16:30:32;8.82;;;2.85;;
41693;SDS011;27377;50.666;9.150;2022-12-07T16:32:58;6.88;;;2.83;;
41693;SDS011;27377;50.666;9.150;2022-12-07T16:35:24;8.35;;;2.92;;
41693;SDS011;27377;50.666;9.150;2022-12-07T16:37:50;9.00;;;3.00;;
41693;SDS011;27377;50.666;9.150;2022-12-07T16:40:15;10.87;;;3.20;;
41693;SDS011;27377;50.666;9.150;2022-12-07T16:42:41;8.13;;;3.60;;
41693;SDS011;27377;50.666;9.150;2022-12-07T16:45:06;8.20;;;3.43;;
41693;SDS011;27377;50.666;9.150;2022-12-07T16:47:32;9.23;;;3.85;;